sensor_id;sensor_type;location;lat;lon;timestamp;pressure;altitude;pressure_sealevel;temperature;humidity
72959;BME280;60008;50.826;6.896;2023-07-31T00:00:14;100695.09;;;17.50;100.00
72959;BME280;60008;50.826;6.896;2023-07-31T00:03:06;100686.88;;;17.52;100.00
72959;BME280;60008;50.826;6.896;2023-07-31T00:05:51;100691.00;;;17.48;100.00
72959;BME280;60008;50.826;6.896;2023-07-31T00:08:43;100699.25;;;17.53;100.00
72959;BME280;60008;50.826;6.896;2023-07-31T00:11:28;100678.66;;;17.60;100.00
72959;BME280;60008;50.826;6.896;2023-07-31T00:14:20;100684.22;;;17.58;100.00
72959;BME280;60008;50.826;6.896;2023-07-31T00:17:05;100692.06;;;17.60;100.00
72959;BME280;60008;50.826;6.896;2023-07-31T00:19:57;100685.47;;;17.69;100.00
72959;BME280;60008;50.826;6.896;2023-07-31T00:22:42;100675.13;;;17.72;100.00
72959;BME280;60008;50.826;6.896;2023-07-31T00:25:34;100674.94;;;17.74;100.00
72959;BME280;60008;50.826;6.896;2023-07-31T00:28:19;100677.63;;;17.74;100.00
72959;BME280;60008;50.826;6.896;2023-07-31T00:31:11;100685.44;;;17.75;100.00
72959;BME280;60008;50.826;6.896;2023-07-31T00:33:56;100680.69;;;17.77;100.00
72959;BME280;60008;50.826;6.896;2023-07-31T00:36:48;100687.94;;;17.77;100.00
72959;BME280;60008;50.826;6.896;2023-07-31T00:39:34;100692.88;;;17.73;100.00
72959;BME280;60008;50.826;6.896;2023-07-31T00:42:25;100696.78;;;17.71;100.00
72959;BME280;60008;50.826;6.896;2023-07-31T00:45:10;100695.34;;;17.68;100.00
72959;BME280;60008;50.826;6.896;2023-07-31T00:48:01;100697.19;;;17.61;100.00
72959;BME280;60008;50.826;6.896;2023-07-31T00:50:46;100683.78;;;17.61;100.00
72959;BME280;60008;50.826;6.896;2023-07-31T00:53:38;100685.88;;;17.66;100.00
72959;BME280;60008;50.826;6.896;2023-07-31T00:56:25;100685.88;;;17.66;100.00
72959;BME280;60008;50.826;6.896;2023-07-31T00:59:17;100674.31;;;17.65;100.00
72959;BME280;60008;50.826;6.896;2023-07-31T01:02:04;100677.41;;;17.62;100.00
72959;BME280;60008;50.826;6.896;2023-07-31T01:04:55;100683.00;;;17.61;100.00
72959;BME280;60008;50.826;6.896;2023-07-31T01:08:05;100675.16;;;17.66;100.00
72959;BME280;60008;50.826;6.896;2023-07-31T01:11:19;100652.47;;;17.68;100.00
72959;BME280;60008;50.826;6.896;2023-07-31T01:14:06;100663.38;;;17.67;100.00
72959;BME280;60008;50.826;6.896;2023-07-31T01:16:58;100654.31;;;17.61;100.00
72959;BME280;60008;50.826;6.896;2023-07-31T01:19:44;100660.31;;;17.63;100.00
72959;BME280;60008;50.826;6.896;2023-07-31T01:23:19;100649.38;;;17.58;100.00
72959;BME280;60008;50.826;6.896;2023-07-31T01:26:12;100645.25;;;17.62;100.00
72959;BME280;60008;50.826;6.896;2023-07-31T01:29:17;100657.63;;;17.57;100.00
72959;BME280;60008;50.826;6.896;2023-07-31T01:32:06;100650.00;;;17.60;100.00
72959;BME280;60008;50.826;6.896;2023-07-31T01:34:59;100659.06;;;17.59;100.00
72959;BME280;60008;50.826;6.896;2023-07-31T01:37:45;100658.47;;;17.57;100.00
72959;BME280;60008;50.826;6.896;2023-07-31T01:40:37;100664.00;;;17.56;100.00
72959;BME280;60008;50.826;6.896;2023-07-31T01:43:22;100666.91;;;17.54;100.00
72959;BME280;60008;50.826;6.896;2023-07-31T01:46:15;100661.50;;;17.48;100.00
72959;BME280;60008;50.826;6.896;2023-07-31T01:49:00;100662.56;;;17.53;100.00
72959;BME280;60008;50.826;6.896;2023-07-31T01:51:52;100660.72;;;17.47;100.00
72959;BME280;60008;50.826;6.896;2023-07-31T01:54:37;100659.69;;;17.42;100.00
72959;BME280;60008;50.826;6.896;2023-07-31T01:57:28;100651.84;;;17.40;100.00
72959;BME280;60008;50.826;6.896;2023-07-31T02:00:13;100659.88;;;17.47;100.00
72959;BME280;60008;50.826;6.896;2023-07-31T02:03:05;100649.38;;;17.39;100.00
72959;BME280;60008;50.826;6.896;2023-07-31T02:05:57;100645.44;;;17.41;100.00
72959;BME280;60008;50.826;6.896;2023-07-31T02:08:48;100643.38;;;17.37;100.00
72959;BME280;60008;50.826;6.896;2023-07-31T02:11:46;100635.34;;;17.43;100.00
72959;BME280;60008;50.826;6.896;2023-07-31T02:14:31;100638.63;;;17.45;100.00
72959;BME280;60008;50.826;6.896;2023-07-31T02:17:23;100632.03;;;17.48;100.00
72959;BME280;60008;50.826;6.896;2023-07-31T02:20:09;100624.81;;;17.48;100.00
72959;BME280;60008;50.826;6.896;2023-07-31T02:23:01;100623.63;;;17.57;100.00
72959;BME280;60008;50.826;6.896;2023-07-31T02:25:47;100609.56;;;17.62;100.00
72959;BME280;60008;50.826;6.896;2023-07-31T02:28:39;100609.16;;;17.52;100.00
72959;BME280;60008;50.826;6.896;2023-07-31T02:31:34;100613.09;;;17.56;100.00
72959;BME280;60008;50.826;6.896;2023-07-31T02:34:25;100610.63;;;17.54;100.00
72959;BME280;60008;50.826;6.896;2023-07-31T02:37:16;100598.44;;;17.58;100.00
72959;BME280;60008;50.826;6.896;2023-07-31T02:40:08;100588.75;;;17.64;100.00
72959;BME280;60008;50.826;6.896;2023-07-31T02:42:53;100593.06;;;17.58;100.00
72959;BME280;60008;50.826;6.896;2023-07-31T02:45:44;100594.53;;;17.61;100.00
72959;BME280;60008;50.826;6.896;2023-07-31T02:48:35;100595.34;;;17.61;100.00
72959;BME280;60008;50.826;6.896;2023-07-31T02:51:27;100593.31;;;17.63;100.00
72959;BME280;60008;50.826;6.896;2023-07-31T02:54:12;100595.16;;;17.56;100.00
72959;BME280;60008;50.826;6.896;2023-07-31T02:57:03;100589.97;;;17.61;100.00
72959;BME280;60008;50.826;6.896;2023-07-31T02:59:55;100590.81;;;17.68;100.00
72959;BME280;60008;50.826;6.896;2023-07-31T03:02:47;100595.56;;;17.66;100.00
72959;BME280;60008;50.826;6.896;2023-07-31T03:05:44;100583.38;;;17.64;100.00
72959;BME280;60008;50.826;6.896;2023-07-31T03:08:29;100594.31;;;17.69;100.00
72959;BME280;60008;50.826;6.896;2023-07-31T03:11:21;100587.72;;;17.65;100.00
72959;BME280;60008;50.826;6.896;2023-07-31T03:14:06;100582.59;;;17.57;100.00
72959;BME280;60008;50.826;6.896;2023-07-31T03:17:02;100583.81;;;17.61;100.00
72959;BME280;60008;50.826;6.896;2023-07-31T03:19:53;100583.59;;;17.62;100.00
72959;BME280;60008;50.826;6.896;2023-07-31T03:22:44;100576.38;;;17.63;100.00
72959;BME280;60008;50.826;6.896;2023-07-31T03:25:29;100565.25;;;17.66;100.00
72959;BME280;60008;50.826;6.896;2023-07-31T03:28:20;100576.81;;;17.66;100.00
72959;BME280;60008;50.826;6.896;2023-07-31T03:31:05;100567.28;;;17.70;100.00
72959;BME280;60008;50.826;6.896;2023-07-31T03:33:56;100568.13;;;17.71;100.00
72959;BME280;60008;50.826;6.896;2023-07-31T03:36:48;100563.59;;;17.71;100.00
72959;BME280;60008;50.826;6.896;2023-07-31T03:39:39;100547.69;;;17.70;100.00
72959;BME280;60008;50.826;6.896;2023-07-31T03:42:31;100543.16;;;17.70;100.00
72959;BME280;60008;50.826;6.896;2023-07-31T03:45:16;100549.13;;;17.72;100.00
72959;BME280;60008;50.826;6.896;2023-07-31T03:48:07;100545.25;;;17.68;100.00
72959;BME280;60008;50.826;6.896;2023-07-31T03:50:53;100542.97;;;17.65;100.00
72959;BME280;60008;50.826;6.896;2023-07-31T03:53:45;100538.81;;;17.69;100.00
72959;BME280;60008;50.826;6.896;2023-07-31T03:56:30;100531.00;;;17.68;100.00
72959;BME280;60008;50.826;6.896;2023-07-31T03:59:22;100533.09;;;17.66;100.00
72959;BME280;60008;50.826;6.896;2023-07-31T04:02:07;100532.66;;;17.69;100.00
72959;BME280;60008;50.826;6.896;2023-07-31T04:04:59;100527.91;;;17.64;100.00
72959;BME280;60008;50.826;6.896;2023-07-31T04:07:51;100525.88;;;17.66;100.00
72959;BME280;60008;50.826;6.896;2023-07-31T04:10:42;100524.63;;;17.69;100.00
72959;BME280;60008;50.826;6.896;2023-07-31T04:13:34;100536.13;;;17.69;100.00
72959;BME280;60008;50.826;6.896;2023-07-31T04:16:25;100528.75;;;17.71;100.00
72959;BME280;60008;50.826;6.896;2023-07-31T04:19:16;100540.25;;;17.72;100.00
72959;BME280;60008;50.826;6.896;2023-07-31T04:22:01;100532.22;;;17.72;100.00
72959;BME280;60008;50.826;6.896;2023-07-31T04:24:53;100526.66;;;17.73;100.00
72959;BME280;60008;50.826;6.896;2023-07-31T04:27:44;100527.69;;;17.72;100.00
72959;BME280;60008;50.826;6.896;2023-07-31T04:30:29;100527.06;;;17.70;100.00
72959;BME280;60008;50.826;6.896;2023-07-31T04:33:21;100523.16;;;17.73;100.00
72959;BME280;60008;50.826;6.896;2023-07-31T04:36:13;100524.38;;;17.77;100.00
72959;BME280;60008;50.826;6.896;2023-07-31T04:38:58;100527.88;;;17.77;100.00
72959;BME280;60008;50.826;6.896;2023-07-31T04:41:50;100525.81;;;17.79;100.00
72959;BME280;60008;50.826;6.896;2023-07-31T04:44:42;100520.84;;;17.83;100.00
72959;BME280;60008;50.826;6.896;2023-07-31T04:47:27;100519.38;;;17.87;100.00
72959;BME280;60008;50.826;6.896;2023-07-31T04:50:19;100523.25;;;17.91;100.00
72959;BME280;60008;50.826;6.896;2023-07-31T04:53:04;100515.84;;;17.93;100.00
72959;BME280;60008;50.826;6.896;2023-07-31T04:55:55;100512.53;;;17.91;100.00
72959;BME280;60008;50.826;6.896;2023-07-31T04:58:47;100516.47;;;17.89;100.00
72959;BME280;60008;50.826;6.896;2023-07-31T05:01:32;100508.66;;;17.87;100.00
72959;BME280;60008;50.826;6.896;2023-07-31T05:04:24;100508.84;;;17.92;100.00
72959;BME280;60008;50.826;6.896;2023-07-31T05:07:16;100504.06;;;17.94;100.00
72959;BME280;60008;50.826;6.896;2023-07-31T05:10:08;100497.09;;;17.93;100.00
72959;BME280;60008;50.826;6.896;2023-07-31T05:12:54;100489.22;;;17.98;100.00
72959;BME280;60008;50.826;6.896;2023-07-31T05:15:45;100489.72;;;18.13;100.00
72959;BME280;60008;50.826;6.896;2023-07-31T05:18:30;100480.22;;;18.17;100.00
72959;BME280;60008;50.826;6.896;2023-07-31T05:21:22;100489.31;;;18.16;100.00
72959;BME280;60008;50.826;6.896;2023-07-31T05:24:14;100485.09;;;18.27;100.00
72959;BME280;60008;50.826;6.896;2023-07-31T05:26:59;100484.94;;;18.22;100.00
72959;BME280;60008;50.826;6.896;2023-07-31T05:29:50;100475.00;;;18.29;100.00
72959;BME280;60008;50.826;6.896;2023-07-31T05:32:35;100484.47;;;18.31;100.00
72959;BME280;60008;50.826;6.896;2023-07-31T05:35:26;100472.50;;;18.27;100.00
72959;BME280;60008;50.826;6.896;2023-07-31T05:38:12;100466.94;;;18.29;100.00
72959;BME280;60008;50.826;6.896;2023-07-31T05:41:03;100460.13;;;18.26;100.00
72959;BME280;60008;50.826;6.896;2023-07-31T05:43:48;100454.41;;;18.23;100.00
72959;BME280;60008;50.826;6.896;2023-07-31T05:46:39;100449.03;;;18.23;100.00
72959;BME280;60008;50.826;6.896;2023-07-31T05:49:24;100452.75;;;18.22;100.00
72959;BME280;60008;50.826;6.896;2023-07-31T05:52:16;100447.38;;;18.22;100.00
72959;BME280;60008;50.826;6.896;2023-07-31T05:55:01;100437.78;;;18.08;100.00
72959;BME280;60008;50.826;6.896;2023-07-31T05:57:54;100439.03;;;18.05;100.00
72959;BME280;60008;50.826;6.896;2023-07-31T06:00:39;100445.22;;;18.06;100.00
72959;BME280;60008;50.826;6.896;2023-07-31T06:03:32;100443.78;;;18.03;100.00
72959;BME280;60008;50.826;6.896;2023-07-31T06:06:23;100440.50;;;18.01;100.00
72959;BME280;60008;50.826;6.896;2023-07-31T06:09:14;100451.59;;;18.05;100.00
72959;BME280;60008;50.826;6.896;2023-07-31T06:11:59;100457.44;;;18.02;100.00
72959;BME280;60008;50.826;6.896;2023-07-31T06:14:51;100459.75;;;17.92;100.00
72959;BME280;60008;50.826;6.896;2023-07-31T06:17:36;100467.28;;;17.70;100.00
72959;BME280;60008;50.826;6.896;2023-07-31T06:20:28;100471.72;;;17.38;100.00
72959;BME280;60008;50.826;6.896;2023-07-31T06:23:13;100476.88;;;17.33;100.00
72959;BME280;60008;50.826;6.896;2023-07-31T06:26:05;100490.69;;;17.30;100.00
72959;BME280;60008;50.826;6.896;2023-07-31T06:28:50;100491.13;;;17.20;100.00
72959;BME280;60008;50.826;6.896;2023-07-31T06:31:41;100498.53;;;17.18;100.00
72959;BME280;60008;50.826;6.896;2023-07-31T06:34:26;100486.19;;;17.17;100.00
72959;BME280;60008;50.826;6.896;2023-07-31T06:37:18;100493.81;;;17.07;100.00
72959;BME280;60008;50.826;6.896;2023-07-31T06:40:04;100498.34;;;17.07;100.00
72959;BME280;60008;50.826;6.896;2023-07-31T06:42:56;100496.72;;;17.06;100.00
72959;BME280;60008;50.826;6.896;2023-07-31T06:45:41;100501.84;;;17.07;100.00
72959;BME280;60008;50.826;6.896;2023-07-31T06:48:33;100505.34;;;17.27;100.00
72959;BME280;60008;50.826;6.896;2023-07-31T06:51:18;100499.94;;;17.47;100.00
72959;BME280;60008;50.826;6.896;2023-07-31T06:54:10;100485.88;;;17.52;100.00
72959;BME280;60008;50.826;6.896;2023-07-31T06:56:55;100486.88;;;17.70;100.00
72959;BME280;60008;50.826;6.896;2023-07-31T06:59:47;100479.84;;;17.76;100.00
72959;BME280;60008;50.826;6.896;2023-07-31T07:02:39;100475.63;;;17.93;100.00
72959;BME280;60008;50.826;6.896;2023-07-31T07:05:24;100471.00;;;18.07;100.00
72959;BME280;60008;50.826;6.896;2023-07-31T07:08:16;100470.13;;;18.13;100.00
72959;BME280;60008;50.826;6.896;2023-07-31T07:11:15;100456.41;;;18.27;100.00
72959;BME280;60008;50.826;6.896;2023-07-31T07:14:00;100451.09;;;18.21;100.00
72959;BME280;60008;50.826;6.896;2023-07-31T07:16:52;100458.75;;;18.17;100.00
72959;BME280;60008;50.826;6.896;2023-07-31T07:19:40;100456.28;;;18.16;100.00
72959;BME280;60008;50.826;6.896;2023-07-31T07:22:32;100456.19;;;18.04;100.00
72959;BME280;60008;50.826;6.896;2023-07-31T07:25:17;100456.59;;;18.01;100.00
72959;BME280;60008;50.826;6.896;2023-07-31T07:28:10;100461.78;;;17.96;100.00
72959;BME280;60008;50.826;6.896;2023-07-31T07:30:55;100461.75;;;18.03;100.00
72959;BME280;60008;50.826;6.896;2023-07-31T07:33:46;100467.41;;;17.88;100.00
72959;BME280;60008;50.826;6.896;2023-07-31T07:36:31;100475.06;;;17.84;100.00
72959;BME280;60008;50.826;6.896;2023-07-31T07:39:24;100472.63;;;17.76;100.00
72959;BME280;60008;50.826;6.896;2023-07-31T07:42:16;100483.00;;;17.66;100.00
72959;BME280;60008;50.826;6.896;2023-07-31T07:45:08;100481.75;;;17.62;100.00
72959;BME280;60008;50.826;6.896;2023-07-31T07:48:00;100479.66;;;17.64;100.00
72959;BME280;60008;50.826;6.896;2023-07-31T07:50:45;100483.59;;;17.62;100.00
72959;BME280;60008;50.826;6.896;2023-07-31T07:53:37;100478.88;;;17.51;100.00
72959;BME280;60008;50.826;6.896;2023-07-31T07:56:23;100474.56;;;17.56;100.00
72959;BME280;60008;50.826;6.896;2023-07-31T07:59:15;100479.28;;;17.61;100.00
72959;BME280;60008;50.826;6.896;2023-07-31T08:02:00;100473.88;;;17.67;100.00
72959;BME280;60008;50.826;6.896;2023-07-31T08:04:52;100486.09;;;17.57;100.00
72959;BME280;60008;50.826;6.896;2023-07-31T08:07:44;100456.84;;;17.55;100.00
72959;BME280;60008;50.826;6.896;2023-07-31T08:10:36;100453.13;;;17.56;100.00
72959;BME280;60008;50.826;6.896;2023-07-31T08:13:21;100456.19;;;17.66;100.00
72959;BME280;60008;50.826;6.896;2023-07-31T08:16:13;100451.03;;;17.58;100.00
72959;BME280;60008;50.826;6.896;2023-07-31T08:18:58;100445.31;;;17.55;100.00
72959;BME280;60008;50.826;6.896;2023-07-31T08:21:50;100436.47;;;17.41;100.00
72959;BME280;60008;50.826;6.896;2023-07-31T08:24:35;100439.13;;;17.41;100.00
72959;BME280;60008;50.826;6.896;2023-07-31T08:27:27;100439.09;;;17.48;100.00
72959;BME280;60008;50.826;6.896;2023-07-31T08:30:12;100449.84;;;17.41;100.00
72959;BME280;60008;50.826;6.896;2023-07-31T08:33:06;100438.91;;;17.43;100.00
72959;BME280;60008;50.826;6.896;2023-07-31T08:35:57;100448.56;;;17.57;100.00
72959;BME280;60008;50.826;6.896;2023-07-31T08:38:50;100441.06;;;17.72;100.00
72959;BME280;60008;50.826;6.896;2023-07-31T08:41:38;100443.13;;;17.76;100.00
72959;BME280;60008;50.826;6.896;2023-07-31T08:44:34;100445.13;;;17.88;100.00
72959;BME280;60008;50.826;6.896;2023-07-31T08:47:26;100437.84;;;17.95;100.00
72959;BME280;60008;50.826;6.896;2023-07-31T08:50:20;100431.91;;;17.93;100.00
72959;BME280;60008;50.826;6.896;2023-07-31T08:53:11;100435.34;;;18.00;100.00
72959;BME280;60008;50.826;6.896;2023-07-31T08:56:03;100435.16;;;18.01;100.00
72959;BME280;60008;50.826;6.896;2023-07-31T08:58:52;100444.34;;;18.12;100.00
72959;BME280;60008;50.826;6.896;2023-07-31T09:01:50;100448.50;;;18.08;100.00
72959;BME280;60008;50.826;6.896;2023-07-31T09:04:35;100449.75;;;18.05;100.00
72959;BME280;60008;50.826;6.896;2023-07-31T09:07:26;100435.91;;;18.08;100.00
72959;BME280;60008;50.826;6.896;2023-07-31T09:10:18;100446.06;;;18.00;100.00
72959;BME280;60008;50.826;6.896;2023-07-31T09:13:10;100424.78;;;18.05;100.00
72959;BME280;60008;50.826;6.896;2023-07-31T09:16:01;100430.16;;;18.05;100.00
72959;BME280;60008;50.826;6.896;2023-07-31T09:18:54;100442.03;;;17.91;100.00
72959;BME280;60008;50.826;6.896;2023-07-31T09:21:48;100428.66;;;17.84;100.00
72959;BME280;60008;50.826;6.896;2023-07-31T09:24:39;100427.09;;;18.01;100.00
72959;BME280;60008;50.826;6.896;2023-07-31T09:27:25;100416.16;;;17.71;100.00
72959;BME280;60008;50.826;6.896;2023-07-31T09:30:17;100396.97;;;17.99;100.00
72959;BME280;60008;50.826;6.896;2023-07-31T09:33:09;100395.56;;;17.97;100.00
72959;BME280;60008;50.826;6.896;2023-07-31T09:35:55;100400.56;;;17.87;100.00
72959;BME280;60008;50.826;6.896;2023-07-31T09:38:46;100398.91;;;17.85;100.00
72959;BME280;60008;50.826;6.896;2023-07-31T09:41:36;100395.38;;;17.92;100.00
72959;BME280;60008;50.826;6.896;2023-07-31T09:44:39;100382.94;;;18.04;100.00
72959;BME280;60008;50.826;6.896;2023-07-31T09:47:32;100376.25;;;18.13;100.00
72959;BME280;60008;50.826;6.896;2023-07-31T09:50:20;100370.66;;;18.39;100.00
72959;BME280;60008;50.826;6.896;2023-07-31T09:53:11;100363.75;;;18.56;100.00
72959;BME280;60008;50.826;6.896;2023-07-31T09:56:04;100353.44;;;18.71;100.00
72959;BME280;60008;50.826;6.896;2023-07-31T09:58:56;100355.41;;;18.82;100.00
72959;BME280;60008;50.826;6.896;2023-07-31T10:01:43;100341.81;;;18.77;100.00
72959;BME280;60008;50.826;6.896;2023-07-31T10:04:34;100349.56;;;19.03;100.00
72959;BME280;60008;50.826;6.896;2023-07-31T10:07:39;100339.81;;;18.91;100.00
72959;BME280;60008;50.826;6.896;2023-07-31T10:10:44;100335.94;;;19.05;100.00
72959;BME280;60008;50.826;6.896;2023-07-31T10:13:36;100327.69;;;19.18;100.00
72959;BME280;60008;50.826;6.896;2023-07-31T10:16:22;100327.72;;;19.30;100.00
72959;BME280;60008;50.826;6.896;2023-07-31T10:19:14;100323.88;;;19.26;100.00
72959;BME280;60008;50.826;6.896;2023-07-31T10:21:59;100322.44;;;19.41;100.00
72959;BME280;60008;50.826;6.896;2023-07-31T10:24:52;100321.75;;;19.76;100.00
72959;BME280;60008;50.826;6.896;2023-07-31T10:27:39;100317.16;;;19.76;100.00
72959;BME280;60008;50.826;6.896;2023-07-31T10:30:33;100311.81;;;19.88;100.00
72959;BME280;60008;50.826;6.896;2023-07-31T10:33:19;100299.78;;;20.13;100.00
72959;BME280;60008;50.826;6.896;2023-07-31T10:36:19;100286.56;;;20.47;100.00
72959;BME280;60008;50.826;6.896;2023-07-31T10:39:34;100284.94;;;20.34;100.00
72959;BME280;60008;50.826;6.896;2023-07-31T10:42:38;100289.63;;;20.90;100.00
72959;BME280;60008;50.826;6.896;2023-07-31T10:45:32;100292.22;;;20.85;100.00
72959;BME280;60008;50.826;6.896;2023-07-31T10:48:33;100304.94;;;20.50;100.00
72959;BME280;60008;50.826;6.896;2023-07-31T10:51:20;100304.25;;;20.31;100.00
72959;BME280;60008;50.826;6.896;2023-07-31T10:54:13;100294.22;;;20.38;100.00
72959;BME280;60008;50.826;6.896;2023-07-31T10:57:22;100311.00;;;19.99;100.00
72959;BME280;60008;50.826;6.896;2023-07-31T11:00:19;100312.72;;;19.70;100.00
72959;BME280;60008;50.826;6.896;2023-07-31T11:03:18;100320.41;;;19.67;100.00
72959;BME280;60008;50.826;6.896;2023-07-31T11:06:06;100322.03;;;19.68;100.00
72959;BME280;60008;50.826;6.896;2023-07-31T11:09:13;100324.72;;;19.56;100.00
72959;BME280;60008;50.826;6.896;2023-07-31T11:11:59;100341.69;;;19.68;100.00
72959;BME280;60008;50.826;6.896;2023-07-31T11:14:57;100340.72;;;19.33;100.00
72959;BME280;60008;50.826;6.896;2023-07-31T11:17:49;100326.75;;;19.24;100.00
72959;BME280;60008;50.826;6.896;2023-07-31T11:20:36;100327.06;;;19.16;100.00
72959;BME280;60008;50.826;6.896;2023-07-31T11:23:30;100323.94;;;19.19;100.00
72959;BME280;60008;50.826;6.896;2023-07-31T11:26:16;100325.03;;;19.30;100.00
72959;BME280;60008;50.826;6.896;2023-07-31T11:29:13;100323.03;;;19.43;100.00
72959;BME280;60008;50.826;6.896;2023-07-31T11:31:57;100319.66;;;19.48;100.00
72959;BME280;60008;50.826;6.896;2023-07-31T11:34:55;100301.28;;;19.98;100.00
72959;BME280;60008;50.826;6.896;2023-07-31T11:37:42;100295.81;;;20.62;100.00
72959;BME280;60008;50.826;6.896;2023-07-31T11:40:41;100268.56;;;22.82;100.00
72959;BME280;60008;50.826;6.896;2023-07-31T11:43:26;100276.78;;;22.32;100.00
72959;BME280;60008;50.826;6.896;2023-07-31T11:46:18;100271.66;;;21.80;100.00
72959;BME280;60008;50.826;6.896;2023-07-31T11:49:04;100268.72;;;21.82;100.00
72959;BME280;60008;50.826;6.896;2023-07-31T11:51:56;100254.97;;;21.83;100.00
72959;BME280;60008;50.826;6.896;2023-07-31T11:54:41;100248.78;;;22.00;100.00
72959;BME280;60008;50.826;6.896;2023-07-31T11:57:33;100247.16;;;22.37;100.00
72959;BME280;60008;50.826;6.896;2023-07-31T12:00:18;100241.38;;;22.28;100.00
72959;BME280;60008;50.826;6.896;2023-07-31T12:03:11;100257.53;;;22.07;100.00
72959;BME280;60008;50.826;6.896;2023-07-31T12:06:02;100257.50;;;21.57;100.00
72959;BME280;60008;50.826;6.896;2023-07-31T12:09:01;100250.25;;;21.74;100.00
72959;BME280;60008;50.826;6.896;2023-07-31T12:11:52;100244.50;;;21.70;100.00
72959;BME280;60008;50.826;6.896;2023-07-31T12:14:44;100249.09;;;22.03;100.00
72959;BME280;60008;50.826;6.896;2023-07-31T12:17:29;100253.03;;;21.79;100.00
72959;BME280;60008;50.826;6.896;2023-07-31T12:20:20;100263.75;;;21.29;100.00
72959;BME280;60008;50.826;6.896;2023-07-31T12:23:05;100270.53;;;21.31;100.00
72959;BME280;60008;50.826;6.896;2023-07-31T12:26:08;100265.25;;;20.97;100.00
72959;BME280;60008;50.826;6.896;2023-07-31T12:28:54;100276.53;;;20.82;100.00
72959;BME280;60008;50.826;6.896;2023-07-31T12:31:45;100283.75;;;20.65;100.00
72959;BME280;60008;50.826;6.896;2023-07-31T12:34:42;100266.66;;;20.59;100.00
72959;BME280;60008;50.826;6.896;2023-07-31T12:37:28;100274.88;;;20.41;100.00
72959;BME280;60008;50.826;6.896;2023-07-31T12:40:37;100265.44;;;20.78;100.00
72959;BME280;60008;50.826;6.896;2023-07-31T12:43:37;100261.34;;;21.04;100.00
72959;BME280;60008;50.826;6.896;2023-07-31T12:46:28;100262.94;;;20.89;100.00
72959;BME280;60008;50.826;6.896;2023-07-31T12:49:20;100255.63;;;20.72;100.00
72959;BME280;60008;50.826;6.896;2023-07-31T12:52:05;100264.53;;;20.73;100.00
72959;BME280;60008;50.826;6.896;2023-07-31T12:54:57;100254.41;;;20.80;100.00
72959;BME280;60008;50.826;6.896;2023-07-31T12:57:42;100253.19;;;20.59;100.00
72959;BME280;60008;50.826;6.896;2023-07-31T13:00:34;100252.34;;;20.70;100.00
72959;BME280;60008;50.826;6.896;2023-07-31T13:03:26;100244.69;;;20.79;100.00
72959;BME280;60008;50.826;6.896;2023-07-31T13:06:12;100240.72;;;20.82;100.00
72959;BME280;60008;50.826;6.896;2023-07-31T13:09:03;100230.03;;;20.87;100.00
72959;BME280;60008;50.826;6.896;2023-07-31T13:11:49;100225.97;;;20.84;100.00
72959;BME280;60008;50.826;6.896;2023-07-31T13:14:40;100221.84;;;20.53;100.00
72959;BME280;60008;50.826;6.896;2023-07-31T13:17:26;100210.13;;;20.59;100.00
72959;BME280;60008;50.826;6.896;2023-07-31T13:20:17;100206.50;;;20.54;100.00
72959;BME280;60008;50.826;6.896;2023-07-31T13:23:02;100212.09;;;20.52;100.00
72959;BME280;60008;50.826;6.896;2023-07-31T13:25:55;100194.63;;;20.66;100.00
72959;BME280;60008;50.826;6.896;2023-07-31T13:28:40;100178.56;;;21.00;100.00
72959;BME280;60008;50.826;6.896;2023-07-31T13:31:31;100168.91;;;20.87;100.00
72959;BME280;60008;50.826;6.896;2023-07-31T13:34:17;100175.78;;;20.95;100.00
72959;BME280;60008;50.826;6.896;2023-07-31T13:37:08;100169.81;;;20.64;100.00
72959;BME280;60008;50.826;6.896;2023-07-31T13:39:53;100166.88;;;20.94;100.00
72959;BME280;60008;50.826;6.896;2023-07-31T13:42:45;100178.94;;;20.92;100.00
72959;BME280;60008;50.826;6.896;2023-07-31T13:45:31;100182.50;;;20.81;100.00
72959;BME280;60008;50.826;6.896;2023-07-31T13:48:23;100173.94;;;21.12;100.00
72959;BME280;60008;50.826;6.896;2023-07-31T13:51:15;100165.16;;;21.16;100.00
72959;BME280;60008;50.826;6.896;2023-07-31T13:54:01;100172.06;;;21.12;100.00
72959;BME280;60008;50.826;6.896;2023-07-31T13:56:53;100182.06;;;21.00;100.00
72959;BME280;60008;50.826;6.896;2023-07-31T13:59:38;100173.56;;;20.92;100.00
72959;BME280;60008;50.826;6.896;2023-07-31T14:02:29;100179.66;;;21.15;100.00
72959;BME280;60008;50.826;6.896;2023-07-31T14:05:21;100186.56;;;20.95;100.00
72959;BME280;60008;50.826;6.896;2023-07-31T14:08:13;100183.56;;;20.79;100.00
72959;BME280;60008;50.826;6.896;2023-07-31T14:11:05;100179.69;;;20.87;100.00
72959;BME280;60008;50.826;6.896;2023-07-31T14:13:50;100183.16;;;20.88;100.00
72959;BME280;60008;50.826;6.896;2023-07-31T14:16:42;100177.88;;;21.21;100.00
72959;BME280;60008;50.826;6.896;2023-07-31T14:19:35;100177.06;;;20.92;100.00
72959;BME280;60008;50.826;6.896;2023-07-31T14:22:30;100192.03;;;21.00;100.00
72959;BME280;60008;50.826;6.896;2023-07-31T14:25:18;100179.84;;;20.69;100.00
72959;BME280;60008;50.826;6.896;2023-07-31T14:28:09;100195.53;;;20.72;100.00
72959;BME280;60008;50.826;6.896;2023-07-31T14:30:54;100194.72;;;20.71;100.00
72959;BME280;60008;50.826;6.896;2023-07-31T14:33:45;100180.78;;;20.74;100.00
72959;BME280;60008;50.826;6.896;2023-07-31T14:36:41;100189.31;;;20.43;100.00
72959;BME280;60008;50.826;6.896;2023-07-31T14:39:27;100180.06;;;20.39;100.00